Time;durP1;ratioP1;P1;durP2;ratioP2;P2;SDS_P1;SDS_P2;PMS_P1;PMS_P2;Temp;Humidity;BMP_temperature;BMP_pressure;BME280_temperature;BME280_humidity;BME280_pressure;Samples;Min_cycle;Max_cycle;Signal;HPM_P1;HPM_P2
2022/04/05 00:00:25;;;;;;;0.80;0.80;;;6.50;99.90;;;;;;5281150;28;20031;-79
2022/04/05 00:02:59;;;;;;;1.20;1.20;;;6.40;99.90;;;;;;5243842;28;20043;-77
2022/04/05 00:05:31;;;;;;;0.88;0.88;;;6.40;99.90;;;;;;5245429;28;20055;-80
2022/04/05 00:08:06;;;;;;;0.40;0.40;;;6.30;99.90;;;;;;5255881;28;20039;-80
2022/04/05 00:10:46;;;;;;;0.68;0.68;;;6.30;99.90;;;;;;5269609;28;20036;-79
2022/04/05 00:13:18;;;;;;;0.60;0.60;;;6.30;99.90;;;;;;5258941;28;20030;-79
2022/04/05 00:15:49;;;;;;;1.05;1.05;;;6.30;99.90;;;;;;5260123;28;20031;-80
2022/04/05 00:18:21;;;;;;;1.00;1.00;;;6.30;99.90;;;;;;5277240;28;20031;-79
2022/04/05 00:20:52;;;;;;;4.38;0.70;;;6.40;99.90;;;;;;5276714;28;20045;-77
2022/04/05 00:23:26;;;;;;;0.98;0.98;;;6.30;99.90;;;;;;5294369;28;20031;-79
2022/04/05 00:26:00;;;;;;;0.90;0.90;;;6.30;99.90;;;;;;5291759;28;20484;-78
2022/04/05 00:28:36;;;;;;;0.98;0.98;;;6.30;99.90;;;;;;5263999;28;20036;-79
2022/04/05 00:31:08;;;;;;;0.70;0.70;;;6.30;99.90;;;;;;5274853;28;20032;-78
2022/04/05 00:33:43;;;;;;;0.80;0.80;;;6.30;99.90;;;;;;5274653;28;20023;-80
2022/04/05 00:36:19;;;;;;;0.70;0.70;;;6.20;99.90;;;;;;5258049;28;20042;-78
2022/04/05 00:38:52;;;;;;;0.80;0.80;;;6.00;99.90;;;;;;5257237;28;20040;-79
2022/04/05 00:41:29;;;;;;;0.57;0.57;;;5.90;99.90;;;;;;5234922;28;20051;-78
2022/04/05 00:44:06;;;;;;;0.68;0.68;;;5.80;99.90;;;;;;5258086;28;20473;-77
2022/04/05 00:46:38;;;;;;;1.95;1.15;;;5.70;99.90;;;;;;5258546;28;20028;-79
2022/04/05 00:49:17;;;;;;;0.60;0.60;;;5.60;99.90;;;;;;5273761;28;20048;-78
2022/04/05 00:51:48;;;;;;;1.65;1.55;;;5.70;99.90;;;;;;5274629;28;20034;-77
2022/04/05 00:54:29;;;;;;;0.70;0.70;;;5.80;99.90;;;;;;5258089;28;20054;-78
2022/04/05 00:57:01;;;;;;;0.60;0.60;;;5.80;99.90;;;;;;5272006;28;20031;-79
2022/04/05 00:59:35;;;;;;;0.40;0.40;;;5.90;99.90;;;;;;5244476;28;20039;-79
2022/04/05 01:02:12;;;;;;;1.08;1.08;;;6.00;99.90;;;;;;5278680;28;20024;-76
2022/04/05 01:04:51;;;;;;;1.27;1.27;;;5.80;99.90;;;;;;5285116;27;20062;-79
2022/04/05 01:07:28;;;;;;;0.68;0.68;;;5.70;99.90;;;;;;5273077;28;20034;-80
2022/04/05 01:10:00;;;;;;;0.50;0.50;;;5.60;99.90;;;;;;5274597;28;20037;-79
2022/04/05 01:12:31;;;;;;;0.68;0.68;;;5.50;99.90;;;;;;5295053;27;20031;-79
2022/04/05 01:15:08;;;;;;;0.60;0.60;;;5.50;99.90;;;;;;5272814;28;20027;-78
2022/04/05 01:17:43;;;;;;;0.60;0.60;;;5.50;99.90;;;;;;5272922;28;20216;-79
2022/04/05 01:20:17;;;;;;;0.60;0.60;;;5.40;99.90;;;;;;5257801;27;20045;-78
2022/04/05 01:22:57;;;;;;;;;;;5.30;99.90;;;;;;5275345;28;20031;-80
2022/04/05 01:25:28;;;;;;;0.88;0.88;;;5.30;99.90;;;;;;5276205;28;19907;-79
2022/04/05 01:28:03;;;;;;;0.40;0.40;;;5.30;99.90;;;;;;5274707;28;20037;-78
2022/04/05 01:30:34;;;;;;;;;;;5.40;99.90;;;;;;5241977;28;20200;-78
2022/04/05 01:33:08;;;;;;;0.70;0.70;;;5.30;99.90;;;;;;5291782;27;19942;-79
2022/04/05 01:35:42;;;;;;;0.85;0.85;;;5.30;99.90;;;;;;5256885;28;20035;-79
2022/04/05 01:38:16;;;;;;;0.90;0.90;;;5.20;99.90;;;;;;5273990;28;20477;-79
2022/04/05 01:40:47;;;;;;;0.50;0.50;;;5.30;99.90;;;;;;5274416;28;20045;-79
2022/04/05 01:43:24;;;;;;;0.60;0.60;;;5.30;99.90;;;;;;5282946;28;20035;-79
2022/04/05 01:45:56;;;;;;;0.95;0.95;;;5.40;99.90;;;;;;5271366;28;20057;-80
2022/04/05 01:48:30;;;;;;;0.50;0.50;;;5.50;99.90;;;;;;5274648;28;20520;-79
2022/04/05 01:51:11;;;;;;;0.43;0.43;;;5.50;99.90;;;;;;5291496;28;20249;-79
2022/04/05 01:53:47;;;;;;;0.45;0.45;;;5.70;99.90;;;;;;5271192;28;20031;-79
2022/04/05 01:56:22;;;;;;;0.80;0.80;;;5.60;99.90;;;;;;5257333;28;20024;-80
2022/04/05 01:58:57;;;;;;;0.57;0.57;;;5.70;99.90;;;;;;5257627;28;20057;-79
2022/04/05 02:01:28;;;;;;;;;;;5.80;99.90;;;;;;5274844;28;20035;-79
2022/04/05 02:04:03;;;;;;;1.17;1.17;;;5.80;99.90;;;;;;5274353;28;20394;-79
2022/04/05 02:06:34;;;;;;;0.60;0.60;;;5.80;99.90;;;;;;5258505;28;20056;-79
2022/04/05 02:09:10;;;;;;;0.63;0.63;;;6.00;99.90;;;;;;5250716;28;20028;-79
2022/04/05 02:11:47;;;;;;;0.47;0.47;;;6.00;99.90;;;;;;5271641;28;20034;-80
2022/04/05 02:14:19;;;;;;;0.50;0.50;;;6.00;99.90;;;;;;5259670;28;20320;-78
2022/04/05 02:16:54;;;;;;;0.75;0.75;;;6.00;99.90;;;;;;5251943;28;20329;-78
2022/04/05 02:19:26;;;;;;;0.70;0.70;;;6.00;99.90;;;;;;5253428;28;20036;-79
2022/04/05 02:21:59;;;;;;;0.60;0.60;;;6.10;99.90;;;;;;5279897;28;20043;-77
2022/04/05 02:24:34;;;;;;;0.60;0.60;;;6.20;99.90;;;;;;5273637;28;20036;-78
2022/04/05 02:27:07;;;;;;;0.63;0.63;;;6.20;99.90;;;;;;5282691;28;20024;-81
2022/04/05 02:29:39;;;;;;;0.55;0.55;;;6.20;99.90;;;;;;5256773;28;20708;-80
2022/04/05 02:32:21;;;;;;;0.70;0.70;;;6.20;99.90;;;;;;5273414;28;20057;-80
2022/04/05 02:34:55;;;;;;;0.50;0.50;;;6.20;99.90;;;;;;5273224;28;20497;-80
2022/04/05 02:37:31;;;;;;;0.60;0.60;;;6.20;99.90;;;;;;5284365;28;20055;-80
2022/04/05 02:40:08;;;;;;;0.70;0.70;;;6.30;99.90;;;;;;5263453;28;20765;-78
2022/04/05 02:42:39;;;;;;;0.85;0.85;;;6.30;99.90;;;;;;5290449;28;20031;-79
2022/04/05 02:45:13;;;;;;;0.50;0.50;;;6.30;99.90;;;;;;5289019;27;20038;-79
2022/04/05 02:47:45;;;;;;;0.70;0.70;;;6.30;99.90;;;;;;5255637;28;20041;-79
2022/04/05 02:50:18;;;;;;;0.50;0.50;;;6.20;99.90;;;;;;5270269;28;20036;-78
2022/04/05 02:52:55;;;;;;;0.50;0.50;;;6.30;99.90;;;;;;5272537;28;20030;-79
2022/04/05 02:55:32;;;;;;;0.60;0.60;;;6.40;99.90;;;;;;5272666;28;20034;-78
2022/04/05 02:58:08;;;;;;;0.70;0.70;;;6.50;99.90;;;;;;5290457;28;20382;-79
2022/04/05 03:00:40;;;;;;;0.65;0.65;;;6.50;99.90;;;;;;5272190;28;20028;-78
2022/04/05 03:03:14;;;;;;;0.60;0.60;;;6.50;99.90;;;;;;5271320;28;20343;-76
2022/04/05 03:05:46;;;;;;;0.50;0.50;;;6.60;99.90;;;;;;5263416;28;20050;-79
2022/04/05 03:08:22;;;;;;;0.70;0.70;;;6.60;99.90;;;;;;5295834;27;20043;-79
2022/04/05 03:10:55;;;;;;;0.73;0.73;;;6.60;99.90;;;;;;5309376;27;20026;-80
2022/04/05 03:13:36;;;;;;;1.17;1.17;;;6.70;99.90;;;;;;5234361;28;20344;-80
2022/04/05 03:16:09;;;;;;;0.80;0.80;;;6.70;99.90;;;;;;5267030;28;20043;-79
2022/04/05 03:18:47;;;;;;;0.63;0.63;;;6.70;99.90;;;;;;5281265;28;20035;-79
2022/04/05 03:21:21;;;;;;;0.50;0.50;;;6.70;99.90;;;;;;5287320;27;20659;-78
2022/04/05 03:23:59;;;;;;;0.50;0.50;;;6.80;99.90;;;;;;5276076;28;20035;-79
2022/04/05 03:26:31;;;;;;;0.80;0.80;;;6.80;99.90;;;;;;5275028;28;20037;-78
2022/04/05 03:29:03;;;;;;;0.85;0.85;;;6.90;99.90;;;;;;5276518;28;20039;-77
2022/04/05 03:31:37;;;;;;;0.70;0.70;;;6.90;99.90;;;;;;5311656;28;20039;-79
2022/04/05 03:34:16;;;;;;;0.50;0.50;;;6.90;99.90;;;;;;5295575;28;20031;-79
2022/04/05 03:36:50;;;;;;;0.70;0.70;;;6.90;99.90;;;;;;5290784;28;20035;-78
2022/04/05 03:39:21;;;;;;;0.88;0.88;;;6.90;99.90;;;;;;5256820;28;20035;-79
2022/04/05 03:42:00;;;;;;;0.70;0.70;;;7.00;99.90;;;;;;5275361;28;20039;-78
2022/04/05 03:44:34;;;;;;;1.00;1.00;;;7.00;99.90;;;;;;5254707;28;20036;-76
2022/04/05 03:47:13;;;;;;;0.63;0.63;;;7.00;99.90;;;;;;5244934;28;20032;-80
2022/04/05 03:49:46;;;;;;;0.60;0.60;;;7.10;99.90;;;;;;5287770;28;20023;-80
2022/04/05 03:52:17;;;;;;;0.60;0.60;;;7.10;99.90;;;;;;5294079;28;20032;-79
2022/04/05 03:54:52;;;;;;;0.60;0.60;;;7.10;99.90;;;;;;5274944;28;20043;-79
2022/04/05 03:57:29;;;;;;;;;;;7.20;99.90;;;;;;5272839;28;20082;-80
2022/04/05 04:00:06;;;;;;;0.60;0.60;;;7.10;99.90;;;;;;5272662;28;19907;-79
2022/04/05 04:02:37;;;;;;;0.60;0.60;;;7.20;99.90;;;;;;5269591;28;20507;-80
2022/04/05 04:05:10;;;;;;;0.57;0.57;;;7.30;99.90;;;;;;5278841;28;20062;-79
2022/04/05 04:07:43;;;;;;;0.98;0.98;;;7.20;99.90;;;;;;5265290;28;20028;-77
2022/04/05 04:10:15;;;;;;;0.80;0.80;;;7.20;99.90;;;;;;5255040;28;20047;-80
2022/04/05 04:12:48;;;;;;;1.33;1.33;;;7.30;99.90;;;;;;5271603;28;20032;-78
2022/04/05 04:15:20;;;;;;;0.60;0.60;;;7.30;99.90;;;;;;5289587;28;20028;-79
2022/04/05 04:17:54;;;;;;;0.85;0.85;;;7.40;99.90;;;;;;5288099;28;20035;-78
2022/04/05 04:20:28;;;;;;;0.93;0.93;;;7.30;99.90;;;;;;5269916;28;20067;-78
2022/04/05 04:23:02;;;;;;;0.50;0.50;;;7.40;99.90;;;;;;5236778;28;20054;-80
2022/04/05 04:25:40;;;;;;;0.82;0.82;;;7.30;99.90;;;;;;5288340;28;20019;-79
2022/04/05 04:28:14;;;;;;;0.65;0.65;;;7.30;99.90;;;;;;5271915;28;20051;-79
2022/04/05 04:30:50;;;;;;;1.00;1.00;;;7.30;99.90;;;;;;5269930;28;20023;-80
2022/04/05 04:33:22;;;;;;;1.05;1.05;;;7.30;99.90;;;;;;5289292;28;20356;-80
2022/04/05 04:36:02;;;;;;;0.77;0.77;;;7.30;99.90;;;;;;5272186;28;20039;-79
2022/04/05 04:38:37;;;;;;;0.60;0.60;;;7.40;99.90;;;;;;5274826;28;20027;-77
2022/04/05 04:41:11;;;;;;;0.60;0.60;;;7.50;99.90;;;;;;5254353;28;20036;-80
2022/04/05 04:43:47;;;;;;;0.80;0.80;;;7.40;99.90;;;;;;5291793;28;20046;-76
2022/04/05 04:46:23;;;;;;;0.50;0.50;;;7.50;99.90;;;;;;5293310;28;20050;-79
2022/04/05 04:48:57;;;;;;;0.70;0.70;;;7.50;99.90;;;;;;5293210;28;20041;-80
2022/04/05 04:51:31;;;;;;;0.55;0.55;;;7.60;99.90;;;;;;5291998;28;20041;-77
2022/04/05 04:54:07;;;;;;;0.80;0.80;;;7.60;99.90;;;;;;5273774;28;20359;-78
2022/04/05 04:56:42;;;;;;;0.60;0.60;;;7.60;99.90;;;;;;5274101;28;20110;-79
2022/04/05 04:59:19;;;;;;;0.50;0.50;;;7.60;99.90;;;;;;5268805;28;20379;-79
2022/04/05 05:01:51;;;;;;;0.70;0.70;;;7.60;99.90;;;;;;5254560;28;20030;-80
2022/04/05 05:04:23;;;;;;;0.70;0.70;;;7.60;99.90;;;;;;5262870;28;20477;-78
2022/04/05 05:06:55;;;;;;;0.40;0.40;;;7.70;99.90;;;;;;5242521;28;20044;-78
2022/04/05 05:09:29;;;;;;;2.35;1.48;;;7.70;99.90;;;;;;5257192;28;20039;-79
2022/04/05 05:12:05;;;;;;;0.80;0.80;;;7.70;99.90;;;;;;5290790;28;20020;-77
2022/04/05 05:14:40;;;;;;;0.80;0.80;;;7.70;99.90;;;;;;5261717;28;20264;-79
2022/04/05 05:17:17;;;;;;;0.75;0.75;;;7.70;99.90;;;;;;5252856;28;20038;-78
2022/04/05 05:19:51;;;;;;;0.65;0.65;;;7.80;99.90;;;;;;5281064;27;20265;-78
2022/04/05 05:22:23;;;;;;;0.70;0.70;;;7.80;99.90;;;;;;5292168;28;20028;-78
2022/04/05 05:24:55;;;;;;;0.57;0.57;;;7.80;99.90;;;;;;5278979;28;20039;-80
2022/04/05 05:27:28;;;;;;;1.23;1.23;;;7.90;99.90;;;;;;5241111;28;20041;-77
2022/04/05 05:30:08;;;;;;;0.57;0.57;;;7.90;99.90;;;;;;5247792;28;20047;-79
2022/04/05 05:32:44;;;;;;;0.60;0.60;;;7.90;99.90;;;;;;5291278;28;20026;-79
2022/04/05 05:35:27;;;;;;;0.80;0.80;;;7.90;99.90;;;;;;5290316;28;20038;-79
2022/04/05 05:37:59;;;;;;;0.50;0.50;;;8.00;99.90;;;;;;5285409;28;20039;-78
2022/04/05 05:40:34;;;;;;;0.60;0.60;;;8.00;99.90;;;;;;5273717;28;20568;-78
2022/04/05 05:43:09;;;;;;;0.80;0.80;;;8.00;99.90;;;;;;5268823;28;20038;-79
2022/04/05 05:45:49;;;;;;;0.80;0.80;;;8.10;99.90;;;;;;5292502;28;20034;-76
2022/04/05 05:48:22;;;;;;;0.80;0.80;;;8.10;99.90;;;;;;5257386;28;20035;-81
2022/04/05 05:50:55;;;;;;;0.93;0.93;;;8.20;99.90;;;;;;5274991;28;20053;-78
2022/04/05 05:53:32;;;;;;;0.90;0.90;;;8.20;99.90;;;;;;5273685;28;20035;-78
2022/04/05 05:56:06;;;;;;;1.02;1.00;;;8.30;99.90;;;;;;5273674;28;20032;-81
2022/04/05 05:58:40;;;;;;;0.80;0.80;;;8.30;99.90;;;;;;5262272;28;20066;-76
2022/04/05 06:01:16;;;;;;;0.90;0.90;;;8.30;99.90;;;;;;5276560;28;20043;-79
2022/04/05 06:03:50;;;;;;;0.65;0.65;;;8.30;99.90;;;;;;5274655;28;20381;-79
2022/04/05 06:06:28;;;;;;;;;;;8.30;99.90;;;;;;5224063;28;20538;-79
2022/04/05 06:09:06;;;;;;;0.80;0.80;;;8.30;99.90;;;;;;5288497;28;19926;-77
2022/04/05 06:11:38;;;;;;;0.80;0.80;;;8.30;99.90;;;;;;5291266;28;20030;-80
2022/04/05 06:14:09;;;;;;;0.70;0.70;;;8.20;99.90;;;;;;5272603;28;20383;-79
2022/04/05 06:16:49;;;;;;;1.10;1.10;;;8.00;99.90;;;;;;5238603;28;20258;-75
2022/04/05 06:19:23;;;;;;;0.90;0.90;;;7.90;99.90;;;;;;5256391;28;20038;-77
2022/04/05 06:21:57;;;;;;;0.90;0.90;;;7.80;99.90;;;;;;5272534;28;20043;-80
2022/04/05 06:24:30;;;;;;;0.90;0.90;;;7.80;99.90;;;;;;5255561;28;20035;-77
2022/04/05 06:27:05;;;;;;;0.73;0.73;;;7.80;99.90;;;;;;5283821;28;20035;-79
2022/04/05 06:29:44;;;;;;;0.60;0.60;;;7.80;99.90;;;;;;5269010;28;20030;-78
2022/04/05 06:32:22;;;;;;;0.77;0.77;;;7.80;99.90;;;;;;5270391;28;20531;-79
2022/04/05 06:34:53;;;;;;;0.80;0.80;;;7.80;99.90;;;;;;5251206;28;20063;-78
2022/04/05 06:37:25;;;;;;;0.80;0.80;;;7.90;99.90;;;;;;5254064;28;20035;-78
2022/04/05 06:40:00;;;;;;;0.70;0.70;;;7.90;99.90;;;;;;5272912;28;20027;-79
2022/04/05 06:42:35;;;;;;;0.57;0.57;;;7.90;99.90;;;;;;5273954;27;20038;-80
2022/04/05 06:45:22;;;;;;;0.73;0.73;;;7.80;99.90;;;;;;5236212;28;20038;-79
2022/04/05 06:47:57;;;;;;;4.25;1.52;;;7.70;99.90;;;;;;5254325;28;20043;-77
2022/04/05 06:50:29;;;;;;;0.65;0.65;;;7.70;99.90;;;;;;5254890;28;20047;-79
2022/04/05 06:53:03;;;;;;;0.77;0.77;;;7.60;99.90;;;;;;5238250;28;20049;-78
2022/04/05 06:55:40;;;;;;;0.47;0.47;;;7.50;99.90;;;;;;5266650;28;20028;-78
2022/04/05 06:58:20;;;;;;;0.80;0.80;;;7.50;99.90;;;;;;5268105;28;20039;-80
2022/04/05 07:00:54;;;;;;;0.70;0.70;;;7.50;99.90;;;;;;5224671;28;20039;-78
2022/04/05 07:03:33;;;;;;;0.68;0.68;;;7.50;99.90;;;;;;5273055;28;20031;-80
2022/04/05 07:06:05;;;;;;;0.80;0.80;;;7.60;99.90;;;;;;5239996;28;20044;-77
2022/04/05 07:08:37;;;;;;;0.80;0.80;;;7.60;99.90;;;;;;5256470;28;20466;-79
2022/04/05 07:11:11;;;;;;;0.70;0.70;;;7.70;99.90;;;;;;5269414;28;20417;-80
2022/04/05 07:13:47;;;;;;;1.35;1.35;;;7.80;99.90;;;;;;5256500;28;20061;-78
2022/04/05 07:16:21;;;;;;;0.73;0.73;;;7.80;99.90;;;;;;5273313;28;20024;-78
2022/04/05 07:18:52;;;;;;;0.70;0.70;;;7.70;99.90;;;;;;5274358;28;20225;-80
2022/04/05 07:21:23;;;;;;;0.65;0.65;;;7.70;99.90;;;;;;5272082;28;20038;-79
2022/04/05 07:23:59;;;;;;;0.50;0.50;;;7.60;99.90;;;;;;5283365;28;20038;-79
2022/04/05 07:26:40;;;;;;;0.68;0.68;;;7.60;99.90;;;;;;5269643;28;20105;-78
2022/04/05 07:29:12;;;;;;;0.77;0.77;;;7.60;99.90;;;;;;5239343;28;20050;-80
2022/04/05 07:31:48;;;;;;;0.70;0.70;;;7.70;99.90;;;;;;5291039;28;20473;-80
2022/04/05 07:34:20;;;;;;;0.70;0.70;;;7.60;99.90;;;;;;5226859;28;20044;-80
2022/04/05 07:36:54;;;;;;;0.60;0.60;;;7.50;99.90;;;;;;5235770;28;20046;-79
2022/04/05 07:39:26;;;;;;;;;;;7.40;99.90;;;;;;5252908;28;20373;-79
2022/04/05 07:41:57;;;;;;;0.68;0.68;;;7.30;99.90;;;;;;5263510;28;20112;-79
2022/04/05 07:44:29;;;;;;;0.55;0.55;;;7.10;99.90;;;;;;5270690;28;20024;-78
2022/04/05 07:47:06;;;;;;;0.80;0.80;;;7.10;99.90;;;;;;5288355;28;20032;-77
2022/04/05 07:49:40;;;;;;;0.70;0.70;;;7.10;99.90;;;;;;5254780;28;20023;-79
2022/04/05 07:52:14;;;;;;;0.45;0.45;;;7.00;99.90;;;;;;5270717;28;20337;-77
2022/04/05 07:54:46;;;;;;;0.82;0.82;;;7.00;99.90;;;;;;5275610;28;20024;-78
2022/04/05 07:57:18;;;;;;;0.60;0.60;;;7.00;99.90;;;;;;5248984;28;20044;-80
2022/04/05 07:59:52;;;;;;;0.60;0.60;;;7.00;99.90;;;;;;5283137;28;20585;-77
2022/04/05 08:02:27;;;;;;;0.80;0.80;;;7.00;99.90;;;;;;5254439;28;20622;-77
2022/04/05 08:04:59;;;;;;;0.70;0.70;;;7.10;99.90;;;;;;5254029;28;20517;-79
2022/04/05 08:07:33;;;;;;;1.00;1.00;;;7.10;99.90;;;;;;5261532;28;20034;-79
2022/04/05 08:10:08;;;;;;;0.85;0.85;;;7.20;99.90;;;;;;5288736;28;20036;-80
2022/04/05 08:12:47;;;;;;;0.70;0.70;;;7.30;99.90;;;;;;5274673;28;20035;-79
2022/04/05 08:15:27;;;;;;;0.75;0.75;;;7.30;99.90;;;;;;5271555;28;20040;-80
2022/04/05 08:18:04;;;;;;;1.00;1.00;;;7.40;99.90;;;;;;5273147;28;20036;-79
2022/04/05 08:20:41;;;;;;;0.70;0.70;;;7.50;99.90;;;;;;5293386;28;20326;-78
2022/04/05 08:23:14;;;;;;;0.82;0.82;;;7.60;99.90;;;;;;5253588;28;20050;-80
2022/04/05 08:25:48;;;;;;;0.73;0.73;;;7.70;99.90;;;;;;5293960;28;20453;-80
2022/04/05 08:28:22;;;;;;;0.77;0.77;;;7.80;99.90;;;;;;5241385;28;20046;-80
2022/04/05 08:30:53;;;;;;;0.47;0.47;;;7.90;99.90;;;;;;5292212;28;20024;-80
2022/04/05 08:33:28;;;;;;;0.68;0.68;;;7.90;99.90;;;;;;5293400;28;20039;-80
2022/04/05 08:35:59;;;;;;;0.70;0.70;;;8.10;99.90;;;;;;5299070;27;20025;-81
2022/04/05 08:38:33;;;;;;;0.80;0.80;;;8.30;99.90;;;;;;5297627;27;20524;-79
2022/04/05 08:41:08;;;;;;;0.88;0.88;;;8.20;99.90;;;;;;5306336;27;20027;-80
2022/04/05 08:43:46;;;;;;;0.68;0.68;;;8.30;99.90;;;;;;5275503;28;20057;-77
2022/04/05 08:46:21;;;;;;;0.80;0.80;;;8.40;99.90;;;;;;5257655;28;20047;-78
2022/04/05 08:48:55;;;;;;;;;;;8.70;99.90;;;;;;5294149;28;20043;-78
2022/04/05 08:51:30;;;;;;;0.55;0.55;;;8.80;99.90;;;;;;5273130;28;20441;-79
2022/04/05 08:54:02;;;;;;;0.60;0.60;;;8.80;99.90;;;;;;5273314;27;20037;-78
2022/04/05 08:56:36;;;;;;;0.50;0.50;;;8.70;99.90;;;;;;5279658;27;20041;-78
2022/04/05 08:59:08;;;;;;;0.60;0.60;;;8.90;99.90;;;;;;5275581;28;20027;-80
2022/04/05 09:01:43;;;;;;;0.57;0.57;;;8.80;99.90;;;;;;5260858;28;20042;-78
2022/04/05 09:04:14;;;;;;;0.80;0.80;;;8.90;99.90;;;;;;5281546;28;20043;-81
2022/04/05 09:06:47;;;;;;;0.90;0.90;;;9.20;99.90;;;;;;5271286;28;20042;-80
2022/04/05 09:09:23;;;;;;;0.80;0.80;;;9.30;99.90;;;;;;5272408;28;20036;-80
2022/04/05 09:11:54;;;;;;;1.05;1.05;;;9.30;99.90;;;;;;5237712;28;20046;-80
2022/04/05 09:14:31;;;;;;;0.60;0.60;;;9.20;99.90;;;;;;5237151;28;20043;-79
2022/04/05 09:17:12;;;;;;;0.80;0.80;;;9.50;99.90;;;;;;5273976;28;20540;-77
2022/04/05 09:19:48;;;;;;;0.80;0.80;;;9.60;99.90;;;;;;5291479;28;20026;-81
2022/04/05 09:22:35;;;;;;;0.80;0.80;;;9.70;99.90;;;;;;5217069;28;20049;-77
2022/04/05 09:25:15;;;;;;;0.77;0.77;;;9.90;99.90;;;;;;5247657;28;20074;-77
2022/04/05 09:27:52;;;;;;;0.70;0.70;;;10.20;99.90;;;;;;5249731;28;20040;-75
2022/04/05 09:30:28;;;;;;;0.68;0.68;;;10.40;99.90;;;;;;5237791;28;20546;-79
2022/04/05 09:33:04;;;;;;;0.90;0.90;;;10.20;99.90;;;;;;5231035;28;20432;-78
2022/04/05 09:35:47;;;;;;;0.70;0.70;;;10.30;99.90;;;;;;5237581;28;20253;-79
2022/04/05 09:38:21;;;;;;;1.13;1.13;;;10.10;99.90;;;;;;5234406;28;20381;-77
2022/04/05 09:41:34;;;;;;;0.80;0.80;;;10.20;99.90;;;;;;5227825;28;20067;-78
2022/04/05 09:44:07;;;;;;;0.90;0.90;;;10.40;99.90;;;;;;5223921;28;20039;-76
2022/04/05 09:46:42;;;;;;;0.80;0.80;;;10.80;99.90;;;;;;5207013;28;20544;-78
2022/04/05 09:49:17;;;;;;;0.70;0.70;;;10.80;99.90;;;;;;5230738;28;20213;-80
2022/04/05 09:51:52;;;;;;;0.80;0.80;;;10.60;99.90;;;;;;5224080;28;20033;-80
2022/04/05 09:54:34;;;;;;;1.25;1.25;;;10.90;99.90;;;;;;5212286;28;20051;-80
2022/04/05 09:57:11;;;;;;;0.50;0.50;;;11.10;99.90;;;;;;5229680;28;20339;-78
2022/04/05 09:59:50;;;;;;;0.80;0.80;;;11.10;99.90;;;;;;5195192;28;20463;-81
2022/04/05 10:02:22;;;;;;;0.70;0.70;;;10.90;99.90;;;;;;5212797;28;20323;-78
2022/04/05 10:05:10;;;;;;;0.70;0.70;;;11.50;99.90;;;;;;5205873;28;20052;-76
2022/04/05 10:07:45;;;;;;;0.80;0.80;;;12.00;99.90;;;;;;5227916;28;20490;-79
2022/04/05 10:10:24;;;;;;;0.80;0.80;;;11.80;99.90;;;;;;5195863;28;20047;-78
2022/04/05 10:12:58;;;;;;;1.00;1.00;;;12.00;99.90;;;;;;5237457;28;20028;-81
2022/04/05 10:15:33;;;;;;;0.80;0.80;;;12.20;99.90;;;;;;5247059;28;20032;-79
2022/04/05 10:18:11;;;;;;;0.60;0.60;;;12.80;99.90;;;;;;5218578;28;20044;-76
2022/04/05 10:20:43;;;;;;;0.70;0.70;;;12.70;99.90;;;;;;5250579;28;20338;-78
2022/04/05 10:23:20;;;;;;;0.70;0.70;;;12.80;99.90;;;;;;5243543;28;20032;-77
2022/04/05 10:25:55;;;;;;;0.60;0.60;;;12.30;99.90;;;;;;5262919;28;20366;-78
2022/04/05 10:28:35;;;;;;;0.77;0.77;;;12.70;99.90;;;;;;5245322;28;20330;-77
2022/04/05 10:31:50;;;;;;;0.70;0.70;;;12.60;99.90;;;;;;5264658;28;20310;-80
2022/04/05 10:35:02;;;;;;;0.75;0.75;;;12.10;99.90;;;;;;5235340;28;20044;-78
2022/04/05 10:37:37;;;;;;;0.80;0.80;;;12.30;99.90;;;;;;5257302;28;20047;-78
2022/04/05 10:40:10;;;;;;;0.90;0.90;;;12.70;99.90;;;;;;5242859;28;20363;-78
2022/04/05 10:42:48;;;;;;;0.70;0.70;;;12.10;99.90;;;;;;5261423;28;20039;-79
2022/04/05 10:45:29;;;;;;;0.70;0.70;;;11.80;99.90;;;;;;5246263;28;20342;-77
2022/04/05 10:48:20;;;;;;;0.80;0.80;;;12.40;99.90;;;;;;5260186;28;20047;-78
2022/04/05 10:51:00;;;;;;;0.80;0.80;;;12.70;99.90;;;;;;5247021;28;20040;-79
2022/04/05 10:54:17;;;;;;;0.80;0.80;;;12.80;99.90;;;;;;5263900;28;20356;-76
2022/04/05 10:56:39;;;;;;;0.70;0.70;;;12.40;99.90;;;;;;5263344;28;20052;-82
2022/04/05 10:59:23;;;;;;;0.82;0.82;;;12.40;99.90;;;;;;5264696;28;20042;-79
2022/04/05 11:01:59;;;;;;;0.80;0.80;;;12.50;99.90;;;;;;5275642;27;20043;-78
2022/04/05 11:04:33;;;;;;;0.70;0.70;;;12.50;99.90;;;;;;5239544;28;20059;-75
2022/04/05 11:07:10;;;;;;;0.80;0.80;;;12.30;99.90;;;;;;5242694;28;20028;-76
2022/04/05 11:09:50;;;;;;;0.70;0.70;;;11.70;99.90;;;;;;5245879;28;20036;-75
2022/04/05 11:12:30;;;;;;;0.90;0.90;;;11.30;99.90;;;;;;5224783;28;20048;-80
2022/04/05 11:15:15;;;;;;;0.93;0.93;;;11.30;99.90;;;;;;5269638;28;20028;-77
2022/04/05 11:17:58;;;;;;;0.70;0.70;;;11.00;99.90;;;;;;5261334;28;20044;-77
2022/04/05 11:20:30;;;;;;;0.60;0.60;;;10.50;99.90;;;;;;5229186;28;20063;-78
2022/04/05 11:23:02;;;;;;;0.65;0.65;;;11.20;99.90;;;;;;5247231;28;20048;-79
2022/04/05 11:25:45;;;;;;;0.77;0.77;;;11.10;99.90;;;;;;5276338;28;20044;-78
2022/04/05 11:28:19;;;;;;;0.70;0.70;;;10.90;99.90;;;;;;5257966;28;20040;-79
2022/04/05 11:31:02;;;;;;;0.90;0.90;;;10.50;99.90;;;;;;5248173;28;20340;-79
2022/04/05 11:33:39;;;;;;;0.70;0.70;;;10.40;99.90;;;;;;5262904;28;20326;-78
2022/04/05 11:36:15;;;;;;;0.70;0.70;;;10.20;99.90;;;;;;5245466;28;20427;-78
2022/04/05 11:38:57;;;;;;;1.00;1.00;;;9.90;99.90;;;;;;5263074;28;20040;-76
2022/04/05 11:41:31;;;;;;;0.60;0.60;;;9.70;99.90;;;;;;5243087;28;20032;-80
2022/04/05 11:44:06;;;;;;;0.80;0.80;;;9.90;99.90;;;;;;5261239;28;20052;-78
2022/04/05 11:46:38;;;;;;;0.70;0.70;;;10.30;99.90;;;;;;5268981;28;20329;-80
2022/04/05 11:49:13;;;;;;;1.17;1.17;;;10.90;99.90;;;;;;5265290;28;20035;-79
2022/04/05 11:51:53;;;;;;;;;;;10.90;99.90;;;;;;5269467;28;20217;-79
2022/04/05 11:54:28;;;;;;;0.70;0.70;;;10.60;99.90;;;;;;5250770;28;20101;-79
2022/04/05 11:57:05;;;;;;;0.50;0.50;;;10.60;99.90;;;;;;5248797;28;20042;-76
2022/04/05 11:59:36;;;;;;;0.70;0.70;;;10.90;99.90;;;;;;5250145;28;20368;-80
2022/04/05 12:02:08;;;;;;;0.60;0.60;;;10.50;99.90;;;;;;5250312;28;20065;-78
2022/04/05 12:04:40;;;;;;;0.80;0.80;;;10.50;99.90;;;;;;5210831;28;20043;-79
2022/04/05 12:07:14;;;;;;;0.82;0.82;;;11.30;99.90;;;;;;5240381;28;20048;-79
2022/04/05 12:09:48;;;;;;;0.90;0.90;;;11.60;99.90;;;;;;5266471;28;20039;-79
2022/04/05 12:12:20;;;;;;;;;;;11.80;99.90;;;;;;5266455;28;20306;-78
2022/04/05 12:14:55;;;;;;;0.70;0.70;;;12.50;99.90;;;;;;5255982;28;19911;-77
2022/04/05 12:17:30;;;;;;;0.80;0.80;;;12.60;99.90;;;;;;5270367;28;20314;-78
2022/04/05 12:20:07;;;;;;;0.80;0.80;;;12.70;99.90;;;;;;5274062;28;20058;-79
2022/04/05 12:22:44;;;;;;;0.63;0.63;;;12.60;99.90;;;;;;5288478;28;20023;-77
2022/04/05 12:25:20;;;;;;;0.80;0.80;;;12.40;99.90;;;;;;5269853;28;20359;-78
2022/04/05 12:27:58;;;;;;;0.70;0.70;;;12.30;99.90;;;;;;5253421;28;20476;-78
2022/04/05 12:30:32;;;;;;;0.70;0.70;;;12.10;99.90;;;;;;5273732;28;20212;-78
2022/04/05 12:33:06;;;;;;;1.30;1.30;;;11.80;99.90;;;;;;5234040;28;20365;-78
2022/04/05 12:35:37;;;;;;;0.80;0.80;;;12.20;99.90;;;;;;5267192;28;20341;-77
2022/04/05 12:38:09;;;;;;;0.80;0.80;;;12.00;99.90;;;;;;5234429;28;20049;-78
2022/04/05 12:40:41;;;;;;;0.80;0.80;;;12.10;99.90;;;;;;5266568;28;20273;-78
2022/04/05 12:43:21;;;;;;;0.80;0.80;;;12.30;99.90;;;;;;5244879;28;20118;-79
2022/04/05 12:45:54;;;;;;;0.80;0.80;;;13.20;99.90;;;;;;5270535;27;20039;-78
2022/04/05 12:48:28;;;;;;;0.60;0.60;;;12.50;99.90;;;;;;5280077;28;20221;-78
2022/04/05 12:51:00;;;;;;;0.73;0.73;;;11.80;99.90;;;;;;5264297;28;20035;-79
2022/04/05 12:53:37;;;;;;;0.70;0.70;;;12.20;99.90;;;;;;5265568;28;20207;-80
2022/04/05 12:56:15;;;;;;;0.60;0.60;;;11.30;99.90;;;;;;5246951;28;20055;-79
2022/04/05 12:58:52;;;;;;;0.70;0.70;;;11.00;99.90;;;;;;5255074;28;20032;-74
2022/04/05 13:01:29;;;;;;;0.70;0.70;;;11.20;99.90;;;;;;5268575;28;20241;-80
2022/04/05 13:04:04;;;;;;;0.70;0.70;;;11.00;99.90;;;;;;5267315;28;20038;-79
2022/04/05 13:06:36;;;;;;;0.70;0.70;;;11.00;99.90;;;;;;5251364;28;20063;-79
2022/04/05 13:09:11;;;;;;;0.95;0.95;;;10.90;99.90;;;;;;5263197;28;20039;-76
2022/04/05 13:11:42;;;;;;;0.75;0.75;;;10.60;99.90;;;;;;5286410;28;20032;-77
2022/04/05 13:14:20;;;;;;;0.88;0.88;;;10.60;99.90;;;;;;5285182;28;20536;-77
2022/04/05 13:17:00;;;;;;;0.85;0.85;;;11.00;99.90;;;;;;5268002;28;20031;-79
2022/04/05 13:19:37;;;;;;;0.80;0.80;;;10.60;99.90;;;;;;5266070;28;20050;-78
2022/04/05 13:22:19;;;;;;;0.65;0.65;;;10.50;99.90;;;;;;5269715;28;20051;-80
2022/04/05 13:24:58;;;;;;;0.60;0.60;;;10.70;99.90;;;;;;5268825;28;20057;-78
2022/04/05 13:27:30;;;;;;;0.60;0.60;;;10.30;99.90;;;;;;5268290;28;20128;-77
2022/04/05 13:30:09;;;;;;;0.80;0.80;;;10.30;99.90;;;;;;5264933;28;20027;-78
2022/04/05 13:32:41;;;;;;;0.70;0.70;;;10.40;99.90;;;;;;5283756;27;20039;-76
2022/04/05 13:35:13;;;;;;;0.98;0.98;;;10.10;99.90;;;;;;5247444;28;20040;-78
2022/04/05 13:37:44;;;;;;;0.70;0.70;;;10.00;99.90;;;;;;5268892;28;20071;-79